Brasie Corners, New York
Current Conditions -  °F | °C
As of 10:58 AM on Sunday 25 Jan 2015 (Local Time) from KGTB Reporting Station
Clear Clear  
Wind Chill: -5°   Ceiling: Unl
Heat Index:   Visibility: 10mi
Dew Point: -4°   Wind: 8mph
Humidity: 59%   Direction: 340°NNW
Pressure: 29.86"   Gusts: NA
Location:  44.3309°N, 75.4775°W
Report Text: KGTB 251558Z AUTO 34007KT 10SM CLR M14/M20 A2986 RMK AO2 SLP124 T11361201
Loading
Personal Weather Stations






























Interactive Weather Map New forecast layout! Learn more

10-Day Weather Forecast

Advertisements
Track Severe Weather on mobile